Carneirinho, Brazil
Current Conditions -  °F | °C
As of 4:00 PM on Friday 31 Oct 2014 (Local Time) from SBSR Reporting Station
Broken Clouds Broken Clouds  
Wind Chill: 90°   Ceiling: 4000
Heat Index: 90°   Visibility: 6mi
Dew Point: 63°   Wind: 7mph
Humidity: 40%   Direction: 350°N
Pressure: 29.94"   Gusts: NA
Location:  19.7°S, 50.69°W
Report Text: SBSR 311800Z 35006KT 9999 BKN040 BKN080 32/17 Q1014
Loading
Personal Weather Stations






























Interactive Weather Map
Tropical Storm Tracking
New forecast layout! Learn more

10-Day Weather Forecast

Advertisements
Track Severe Weather on mobile